sensor_id;sensor_type;location;lat;lon;timestamp;P1;durP1;ratioP1;P2;durP2;ratioP2
11447;SDS011;43755;49.736;8.734;2024-01-15T00:00:37;46.10;;;20.05;;
11447;SDS011;43755;49.736;8.734;2024-01-15T00:02:38;38.65;;;17.85;;
11447;SDS011;43755;49.736;8.734;2024-01-15T00:04:41;44.20;;;19.55;;
11447;SDS011;43755;49.736;8.734;2024-01-15T00:06:42;42.67;;;18.55;;
11447;SDS011;43755;49.736;8.734;2024-01-15T00:08:44;38.03;;;18.23;;
11447;SDS011;43755;49.736;8.734;2024-01-15T00:10:45;41.58;;;19.15;;
11447;SDS011;43755;49.736;8.734;2024-01-15T00:12:47;39.95;;;18.58;;
11447;SDS011;43755;49.736;8.734;2024-01-15T00:14:48;36.53;;;18.15;;
11447;SDS011;43755;49.736;8.734;2024-01-15T00:16:48;37.20;;;17.67;;
11447;SDS011;43755;49.736;8.734;2024-01-15T00:18:51;38.72;;;17.33;;
11447;SDS011;43755;49.736;8.734;2024-01-15T00:20:54;37.38;;;17.08;;
11447;SDS011;43755;49.736;8.734;2024-01-15T00:22:55;39.40;;;18.55;;
11447;SDS011;43755;49.736;8.734;2024-01-15T00:24:56;38.53;;;17.88;;
11447;SDS011;43755;49.736;8.734;2024-01-15T00:26:58;34.60;;;16.30;;
11447;SDS011;43755;49.736;8.734;2024-01-15T00:28:58;35.23;;;17.60;;
11447;SDS011;43755;49.736;8.734;2024-01-15T00:31:00;36.42;;;17.98;;
11447;SDS011;43755;49.736;8.734;2024-01-15T00:33:00;35.20;;;17.40;;
11447;SDS011;43755;49.736;8.734;2024-01-15T00:35:01;35.40;;;18.13;;
11447;SDS011;43755;49.736;8.734;2024-01-15T00:37:05;39.58;;;17.83;;
11447;SDS011;43755;49.736;8.734;2024-01-15T00:39:07;41.03;;;20.23;;
11447;SDS011;43755;49.736;8.734;2024-01-15T00:41:07;33.63;;;17.17;;
11447;SDS011;43755;49.736;8.734;2024-01-15T00:43:08;35.20;;;17.10;;
11447;SDS011;43755;49.736;8.734;2024-01-15T00:45:10;37.85;;;18.75;;
11447;SDS011;43755;49.736;8.734;2024-01-15T00:47:11;38.90;;;17.93;;
11447;SDS011;43755;49.736;8.734;2024-01-15T00:49:12;38.88;;;17.42;;
11447;SDS011;43755;49.736;8.734;2024-01-15T00:51:13;37.08;;;17.58;;
11447;SDS011;43755;49.736;8.734;2024-01-15T00:53:16;37.10;;;16.83;;
11447;SDS011;43755;49.736;8.734;2024-01-15T00:55:18;38.65;;;17.88;;
11447;SDS011;43755;49.736;8.734;2024-01-15T00:57:19;37.83;;;17.35;;
11447;SDS011;43755;49.736;8.734;2024-01-15T00:59:20;35.22;;;17.50;;
11447;SDS011;43755;49.736;8.734;2024-01-15T01:01:21;35.30;;;17.30;;
11447;SDS011;43755;49.736;8.734;2024-01-15T01:03:22;33.08;;;17.33;;
11447;SDS011;43755;49.736;8.734;2024-01-15T01:05:24;35.60;;;16.27;;
11447;SDS011;43755;49.736;8.734;2024-01-15T01:07:25;37.17;;;17.25;;
11447;SDS011;43755;49.736;8.734;2024-01-15T01:09:28;35.22;;;17.67;;
11447;SDS011;43755;49.736;8.734;2024-01-15T01:11:30;35.67;;;17.05;;
11447;SDS011;43755;49.736;8.734;2024-01-15T01:13:31;35.53;;;17.50;;
11447;SDS011;43755;49.736;8.734;2024-01-15T01:15:33;38.10;;;17.73;;
11447;SDS011;43755;49.736;8.734;2024-01-15T01:17:34;32.47;;;16.75;;
11447;SDS011;43755;49.736;8.734;2024-01-15T01:19:36;39.25;;;17.30;;
11447;SDS011;43755;49.736;8.734;2024-01-15T01:21:37;36.67;;;17.50;;
11447;SDS011;43755;49.736;8.734;2024-01-15T01:23:38;32.55;;;15.13;;
11447;SDS011;43755;49.736;8.734;2024-01-15T01:25:41;34.53;;;16.45;;
11447;SDS011;43755;49.736;8.734;2024-01-15T01:27:43;34.95;;;17.25;;
11447;SDS011;43755;49.736;8.734;2024-01-15T01:29:44;30.67;;;16.58;;
11447;SDS011;43755;49.736;8.734;2024-01-15T01:31:46;35.42;;;17.13;;
11447;SDS011;43755;49.736;8.734;2024-01-15T01:33:47;37.50;;;17.45;;
11447;SDS011;43755;49.736;8.734;2024-01-15T01:35:49;36.22;;;17.17;;
11447;SDS011;43755;49.736;8.734;2024-01-15T01:37:50;30.90;;;15.82;;
11447;SDS011;43755;49.736;8.734;2024-01-15T01:39:51;33.83;;;16.48;;
11447;SDS011;43755;49.736;8.734;2024-01-15T01:41:54;31.40;;;16.58;;
11447;SDS011;43755;49.736;8.734;2024-01-15T01:43:56;34.10;;;16.75;;
11447;SDS011;43755;49.736;8.734;2024-01-15T01:45:58;35.88;;;16.60;;
11447;SDS011;43755;49.736;8.734;2024-01-15T01:48:01;35.47;;;17.48;;
11447;SDS011;43755;49.736;8.734;2024-01-15T01:50:04;33.83;;;16.00;;
11447;SDS011;43755;49.736;8.734;2024-01-15T01:52:06;37.88;;;17.52;;
11447;SDS011;43755;49.736;8.734;2024-01-15T01:54:08;33.58;;;16.65;;
11447;SDS011;43755;49.736;8.734;2024-01-15T01:56:12;34.05;;;15.85;;
11447;SDS011;43755;49.736;8.734;2024-01-15T01:58:16;29.30;;;15.70;;
11447;SDS011;43755;49.736;8.734;2024-01-15T02:00:18;32.25;;;15.85;;
11447;SDS011;43755;49.736;8.734;2024-01-15T02:02:19;33.20;;;16.00;;
11447;SDS011;43755;49.736;8.734;2024-01-15T02:04:22;35.30;;;16.20;;
11447;SDS011;43755;49.736;8.734;2024-01-15T02:06:23;32.03;;;15.88;;
11447;SDS011;43755;49.736;8.734;2024-01-15T02:08:25;34.17;;;16.02;;
11447;SDS011;43755;49.736;8.734;2024-01-15T02:10:27;32.55;;;16.05;;
11447;SDS011;43755;49.736;8.734;2024-01-15T02:12:28;30.65;;;16.10;;
11447;SDS011;43755;49.736;8.734;2024-01-15T02:14:31;35.47;;;15.13;;
11447;SDS011;43755;49.736;8.734;2024-01-15T02:16:32;34.90;;;16.08;;
11447;SDS011;43755;49.736;8.734;2024-01-15T02:18:40;30.15;;;15.25;;
11447;SDS011;43755;49.736;8.734;2024-01-15T02:20:42;32.30;;;15.45;;
11447;SDS011;43755;49.736;8.734;2024-01-15T02:22:44;29.73;;;15.70;;
11447;SDS011;43755;49.736;8.734;2024-01-15T02:24:45;33.23;;;16.47;;
11447;SDS011;43755;49.736;8.734;2024-01-15T02:26:47;29.08;;;15.05;;
11447;SDS011;43755;49.736;8.734;2024-01-15T02:28:48;31.00;;;15.23;;
11447;SDS011;43755;49.736;8.734;2024-01-15T02:30:50;28.88;;;14.45;;
11447;SDS011;43755;49.736;8.734;2024-01-15T02:32:50;31.13;;;15.67;;
11447;SDS011;43755;49.736;8.734;2024-01-15T02:34:52;30.98;;;15.40;;
11447;SDS011;43755;49.736;8.734;2024-01-15T02:36:56;30.50;;;15.32;;
11447;SDS011;43755;49.736;8.734;2024-01-15T02:38:57;32.20;;;15.63;;
11447;SDS011;43755;49.736;8.734;2024-01-15T02:40:59;30.67;;;15.40;;
11447;SDS011;43755;49.736;8.734;2024-01-15T02:43:01;31.80;;;15.35;;
11447;SDS011;43755;49.736;8.734;2024-01-15T02:45:03;28.98;;;14.40;;
11447;SDS011;43755;49.736;8.734;2024-01-15T02:47:05;29.88;;;15.13;;
11447;SDS011;43755;49.736;8.734;2024-01-15T02:49:06;30.27;;;15.15;;
11447;SDS011;43755;49.736;8.734;2024-01-15T02:51:07;27.67;;;14.68;;
11447;SDS011;43755;49.736;8.734;2024-01-15T02:53:09;30.05;;;14.55;;
11447;SDS011;43755;49.736;8.734;2024-01-15T02:55:10;32.25;;;15.23;;
11447;SDS011;43755;49.736;8.734;2024-01-15T02:57:13;28.23;;;13.90;;
11447;SDS011;43755;49.736;8.734;2024-01-15T02:59:14;30.38;;;14.75;;
11447;SDS011;43755;49.736;8.734;2024-01-15T03:01:18;30.60;;;15.23;;
11447;SDS011;43755;49.736;8.734;2024-01-15T03:03:19;30.05;;;15.85;;
11447;SDS011;43755;49.736;8.734;2024-01-15T03:05:21;29.80;;;15.02;;
11447;SDS011;43755;49.736;8.734;2024-01-15T03:07:22;30.17;;;15.00;;
11447;SDS011;43755;49.736;8.734;2024-01-15T03:09:23;32.50;;;14.93;;
11447;SDS011;43755;49.736;8.734;2024-01-15T03:11:25;32.03;;;15.48;;
11447;SDS011;43755;49.736;8.734;2024-01-15T03:13:28;31.55;;;14.98;;
11447;SDS011;43755;49.736;8.734;2024-01-15T03:15:29;29.48;;;15.10;;
11447;SDS011;43755;49.736;8.734;2024-01-15T03:17:31;28.73;;;14.85;;
11447;SDS011;43755;49.736;8.734;2024-01-15T03:19:34;27.08;;;13.75;;
11447;SDS011;43755;49.736;8.734;2024-01-15T03:21:36;33.17;;;15.23;;
11447;SDS011;43755;49.736;8.734;2024-01-15T03:23:36;31.13;;;15.27;;
11447;SDS011;43755;49.736;8.734;2024-01-15T03:25:38;29.38;;;14.07;;
11447;SDS011;43755;49.736;8.734;2024-01-15T03:27:39;28.40;;;14.75;;
11447;SDS011;43755;49.736;8.734;2024-01-15T03:29:42;31.50;;;15.30;;
11447;SDS011;43755;49.736;8.734;2024-01-15T03:31:43;30.90;;;14.73;;
11447;SDS011;43755;49.736;8.734;2024-01-15T03:33:44;35.63;;;16.40;;
11447;SDS011;43755;49.736;8.734;2024-01-15T03:35:45;31.98;;;15.05;;
11447;SDS011;43755;49.736;8.734;2024-01-15T03:37:46;34.38;;;15.23;;
11447;SDS011;43755;49.736;8.734;2024-01-15T03:39:48;33.25;;;15.02;;
11447;SDS011;43755;49.736;8.734;2024-01-15T03:41:48;29.43;;;14.70;;
11447;SDS011;43755;49.736;8.734;2024-01-15T03:43:49;32.33;;;15.40;;
11447;SDS011;43755;49.736;8.734;2024-01-15T03:45:52;29.98;;;14.40;;
11447;SDS011;43755;49.736;8.734;2024-01-15T03:47:53;28.98;;;14.73;;
11447;SDS011;43755;49.736;8.734;2024-01-15T03:49:54;29.33;;;14.97;;
11447;SDS011;43755;49.736;8.734;2024-01-15T03:51:55;29.63;;;14.43;;
11447;SDS011;43755;49.736;8.734;2024-01-15T03:53:57;26.60;;;13.95;;
11447;SDS011;43755;49.736;8.734;2024-01-15T03:55:58;29.70;;;14.43;;
11447;SDS011;43755;49.736;8.734;2024-01-15T03:57:59;30.42;;;15.40;;
11447;SDS011;43755;49.736;8.734;2024-01-15T04:00:01;29.08;;;14.82;;
11447;SDS011;43755;49.736;8.734;2024-01-15T04:02:05;26.38;;;14.18;;
11447;SDS011;43755;49.736;8.734;2024-01-15T04:04:06;31.48;;;15.15;;
11447;SDS011;43755;49.736;8.734;2024-01-15T04:06:08;29.02;;;14.73;;
11447;SDS011;43755;49.736;8.734;2024-01-15T04:08:08;29.43;;;14.30;;
11447;SDS011;43755;49.736;8.734;2024-01-15T04:10:10;27.55;;;13.77;;
11447;SDS011;43755;49.736;8.734;2024-01-15T04:12:11;32.13;;;14.35;;
11447;SDS011;43755;49.736;8.734;2024-01-15T04:14:11;27.47;;;13.67;;
11447;SDS011;43755;49.736;8.734;2024-01-15T04:16:13;28.10;;;14.15;;
11447;SDS011;43755;49.736;8.734;2024-01-15T04:18:16;30.88;;;13.93;;
11447;SDS011;43755;49.736;8.734;2024-01-15T04:20:18;29.05;;;13.63;;
11447;SDS011;43755;49.736;8.734;2024-01-15T04:22:18;28.33;;;14.10;;
11447;SDS011;43755;49.736;8.734;2024-01-15T04:24:20;26.70;;;13.85;;
11447;SDS011;43755;49.736;8.734;2024-01-15T04:26:21;24.73;;;12.98;;
11447;SDS011;43755;49.736;8.734;2024-01-15T04:28:23;28.80;;;13.98;;
11447;SDS011;43755;49.736;8.734;2024-01-15T04:30:24;27.35;;;13.82;;
11447;SDS011;43755;49.736;8.734;2024-01-15T04:32:25;26.10;;;13.00;;
11447;SDS011;43755;49.736;8.734;2024-01-15T04:34:27;25.83;;;13.05;;
11447;SDS011;43755;49.736;8.734;2024-01-15T04:36:29;26.08;;;13.70;;
11447;SDS011;43755;49.736;8.734;2024-01-15T04:38:30;27.80;;;14.15;;
11447;SDS011;43755;49.736;8.734;2024-01-15T04:40:32;30.95;;;14.13;;
11447;SDS011;43755;49.736;8.734;2024-01-15T04:42:33;25.50;;;13.82;;
11447;SDS011;43755;49.736;8.734;2024-01-15T04:44:35;29.52;;;14.02;;
11447;SDS011;43755;49.736;8.734;2024-01-15T04:46:36;30.40;;;14.00;;
11447;SDS011;43755;49.736;8.734;2024-01-15T04:48:38;28.17;;;14.18;;
11447;SDS011;43755;49.736;8.734;2024-01-15T04:50:40;25.60;;;13.63;;
11447;SDS011;43755;49.736;8.734;2024-01-15T04:52:42;29.25;;;13.95;;
11447;SDS011;43755;49.736;8.734;2024-01-15T04:54:43;26.25;;;13.75;;
11447;SDS011;43755;49.736;8.734;2024-01-15T04:56:45;29.15;;;14.38;;
11447;SDS011;43755;49.736;8.734;2024-01-15T04:58:46;26.65;;;14.05;;
11447;SDS011;43755;49.736;8.734;2024-01-15T05:00:48;26.20;;;13.85;;
11447;SDS011;43755;49.736;8.734;2024-01-15T05:02:49;25.75;;;13.40;;
11447;SDS011;43755;49.736;8.734;2024-01-15T05:04:50;27.17;;;13.70;;
11447;SDS011;43755;49.736;8.734;2024-01-15T05:06:53;28.42;;;13.57;;
11447;SDS011;43755;49.736;8.734;2024-01-15T05:08:56;29.05;;;14.23;;
11447;SDS011;43755;49.736;8.734;2024-01-15T05:10:57;25.63;;;13.50;;
11447;SDS011;43755;49.736;8.734;2024-01-15T05:12:59;24.73;;;13.35;;
11447;SDS011;43755;49.736;8.734;2024-01-15T05:15:00;28.83;;;13.45;;
11447;SDS011;43755;49.736;8.734;2024-01-15T05:17:01;29.88;;;14.30;;
11447;SDS011;43755;49.736;8.734;2024-01-15T05:19:03;27.40;;;14.98;;
11447;SDS011;43755;49.736;8.734;2024-01-15T05:21:04;27.10;;;13.88;;
11447;SDS011;43755;49.736;8.734;2024-01-15T05:23:07;27.67;;;13.68;;
11447;SDS011;43755;49.736;8.734;2024-01-15T05:25:09;27.48;;;12.75;;
11447;SDS011;43755;49.736;8.734;2024-01-15T05:27:09;26.43;;;13.67;;
11447;SDS011;43755;49.736;8.734;2024-01-15T05:29:10;29.70;;;13.73;;
11447;SDS011;43755;49.736;8.734;2024-01-15T05:31:12;26.23;;;13.82;;
11447;SDS011;43755;49.736;8.734;2024-01-15T05:33:13;26.77;;;14.23;;
11447;SDS011;43755;49.736;8.734;2024-01-15T05:35:14;24.53;;;13.77;;
11447;SDS011;43755;49.736;8.734;2024-01-15T05:37:15;27.77;;;13.60;;
11447;SDS011;43755;49.736;8.734;2024-01-15T05:39:18;28.40;;;13.40;;
11447;SDS011;43755;49.736;8.734;2024-01-15T05:41:19;28.83;;;13.93;;
11447;SDS011;43755;49.736;8.734;2024-01-15T05:43:21;29.27;;;14.30;;
11447;SDS011;43755;49.736;8.734;2024-01-15T05:45:22;26.15;;;13.90;;
11447;SDS011;43755;49.736;8.734;2024-01-15T05:47:23;28.00;;;15.55;;
11447;SDS011;43755;49.736;8.734;2024-01-15T05:49:25;24.95;;;13.40;;
11447;SDS011;43755;49.736;8.734;2024-01-15T05:51:26;29.13;;;14.15;;
11447;SDS011;43755;49.736;8.734;2024-01-15T05:53:28;23.95;;;12.80;;
11447;SDS011;43755;49.736;8.734;2024-01-15T05:55:30;27.83;;;15.77;;
11447;SDS011;43755;49.736;8.734;2024-01-15T05:57:32;30.63;;;17.55;;
11447;SDS011;43755;49.736;8.734;2024-01-15T05:59:33;27.90;;;14.38;;
11447;SDS011;43755;49.736;8.734;2024-01-15T06:01:36;28.45;;;16.40;;
11447;SDS011;43755;49.736;8.734;2024-01-15T06:03:37;24.52;;;14.45;;
11447;SDS011;43755;49.736;8.734;2024-01-15T06:05:39;26.85;;;13.52;;
11447;SDS011;43755;49.736;8.734;2024-01-15T06:07:41;26.88;;;14.20;;
11447;SDS011;43755;49.736;8.734;2024-01-15T06:09:42;25.05;;;13.70;;
11447;SDS011;43755;49.736;8.734;2024-01-15T06:11:45;26.02;;;13.57;;
11447;SDS011;43755;49.736;8.734;2024-01-15T06:13:46;27.40;;;14.20;;
11447;SDS011;43755;49.736;8.734;2024-01-15T06:15:48;28.20;;;14.25;;
11447;SDS011;43755;49.736;8.734;2024-01-15T06:17:49;29.70;;;14.38;;
11447;SDS011;43755;49.736;8.734;2024-01-15T06:19:51;30.00;;;14.93;;
11447;SDS011;43755;49.736;8.734;2024-01-15T06:21:51;29.43;;;14.30;;
11447;SDS011;43755;49.736;8.734;2024-01-15T06:23:52;29.17;;;14.30;;
11447;SDS011;43755;49.736;8.734;2024-01-15T06:25:56;26.63;;;13.32;;
11447;SDS011;43755;49.736;8.734;2024-01-15T06:27:59;25.60;;;13.68;;
11447;SDS011;43755;49.736;8.734;2024-01-15T06:30:00;30.25;;;14.52;;
11447;SDS011;43755;49.736;8.734;2024-01-15T06:32:02;27.25;;;13.98;;
11447;SDS011;43755;49.736;8.734;2024-01-15T06:34:04;28.20;;;13.90;;
11447;SDS011;43755;49.736;8.734;2024-01-15T06:36:06;27.05;;;13.88;;
11447;SDS011;43755;49.736;8.734;2024-01-15T06:38:07;31.85;;;14.25;;
11447;SDS011;43755;49.736;8.734;2024-01-15T06:40:09;28.27;;;13.85;;
11447;SDS011;43755;49.736;8.734;2024-01-15T06:42:10;27.60;;;13.60;;
11447;SDS011;43755;49.736;8.734;2024-01-15T06:44:14;24.00;;;13.65;;
11447;SDS011;43755;49.736;8.734;2024-01-15T06:46:19;27.17;;;13.45;;
11447;SDS011;43755;49.736;8.734;2024-01-15T06:48:21;25.23;;;13.30;;
11447;SDS011;43755;49.736;8.734;2024-01-15T06:50:22;26.23;;;13.65;;
11447;SDS011;43755;49.736;8.734;2024-01-15T06:52:24;25.25;;;13.45;;
11447;SDS011;43755;49.736;8.734;2024-01-15T06:54:26;24.65;;;12.93;;
11447;SDS011;43755;49.736;8.734;2024-01-15T06:56:27;26.33;;;13.75;;
11447;SDS011;43755;49.736;8.734;2024-01-15T06:58:30;25.15;;;12.52;;
11447;SDS011;43755;49.736;8.734;2024-01-15T07:00:33;22.35;;;12.02;;
11447;SDS011;43755;49.736;8.734;2024-01-15T07:02:34;25.92;;;14.23;;
11447;SDS011;43755;49.736;8.734;2024-01-15T07:04:36;25.92;;;14.00;;
11447;SDS011;43755;49.736;8.734;2024-01-15T07:06:37;24.13;;;13.18;;
11447;SDS011;43755;49.736;8.734;2024-01-15T07:08:39;21.95;;;12.45;;
11447;SDS011;43755;49.736;8.734;2024-01-15T07:10:40;23.98;;;13.15;;
11447;SDS011;43755;49.736;8.734;2024-01-15T07:12:42;23.55;;;13.18;;
11447;SDS011;43755;49.736;8.734;2024-01-15T07:14:44;22.73;;;13.35;;
11447;SDS011;43755;49.736;8.734;2024-01-15T07:16:46;23.95;;;13.30;;
11447;SDS011;43755;49.736;8.734;2024-01-15T07:18:48;22.67;;;12.73;;
11447;SDS011;43755;49.736;8.734;2024-01-15T07:20:49;24.35;;;13.25;;
11447;SDS011;43755;49.736;8.734;2024-01-15T07:22:49;21.87;;;13.97;;
11447;SDS011;43755;49.736;8.734;2024-01-15T07:24:51;23.98;;;13.10;;
11447;SDS011;43755;49.736;8.734;2024-01-15T07:26:51;24.93;;;13.47;;
11447;SDS011;43755;49.736;8.734;2024-01-15T07:28:53;25.20;;;13.30;;
11447;SDS011;43755;49.736;8.734;2024-01-15T07:30:54;23.08;;;13.70;;
11447;SDS011;43755;49.736;8.734;2024-01-15T07:32:57;24.88;;;13.82;;
11447;SDS011;43755;49.736;8.734;2024-01-15T07:34:58;23.75;;;13.77;;
11447;SDS011;43755;49.736;8.734;2024-01-15T07:36:59;25.90;;;13.23;;
11447;SDS011;43755;49.736;8.734;2024-01-15T07:39:01;25.13;;;14.00;;
11447;SDS011;43755;49.736;8.734;2024-01-15T07:41:02;26.17;;;13.88;;
11447;SDS011;43755;49.736;8.734;2024-01-15T07:43:04;23.65;;;13.25;;
11447;SDS011;43755;49.736;8.734;2024-01-15T07:45:05;24.45;;;13.60;;
11447;SDS011;43755;49.736;8.734;2024-01-15T07:47:06;25.40;;;14.17;;
11447;SDS011;43755;49.736;8.734;2024-01-15T07:49:10;23.98;;;13.57;;
11447;SDS011;43755;49.736;8.734;2024-01-15T07:51:11;24.10;;;12.77;;
11447;SDS011;43755;49.736;8.734;2024-01-15T07:53:13;27.30;;;14.63;;
11447;SDS011;43755;49.736;8.734;2024-01-15T07:55:14;25.27;;;14.50;;
11447;SDS011;43755;49.736;8.734;2024-01-15T07:57:15;28.13;;;14.50;;
11447;SDS011;43755;49.736;8.734;2024-01-15T07:59:16;25.17;;;14.45;;
11447;SDS011;43755;49.736;8.734;2024-01-15T08:01:18;26.95;;;15.27;;
11447;SDS011;43755;49.736;8.734;2024-01-15T08:03:19;22.63;;;13.73;;
11447;SDS011;43755;49.736;8.734;2024-01-15T08:05:22;26.52;;;14.85;;
11447;SDS011;43755;49.736;8.734;2024-01-15T08:07:23;23.60;;;13.82;;
11447;SDS011;43755;49.736;8.734;2024-01-15T08:09:25;27.00;;;14.82;;
11447;SDS011;43755;49.736;8.734;2024-01-15T08:11:26;27.30;;;14.77;;
11447;SDS011;43755;49.736;8.734;2024-01-15T08:13:28;25.73;;;13.98;;
11447;SDS011;43755;49.736;8.734;2024-01-15T08:15:30;26.35;;;14.63;;
11447;SDS011;43755;49.736;8.734;2024-01-15T08:17:32;25.30;;;14.82;;
11447;SDS011;43755;49.736;8.734;2024-01-15T08:19:33;23.15;;;14.02;;
11447;SDS011;43755;49.736;8.734;2024-01-15T08:21:36;27.58;;;14.52;;
11447;SDS011;43755;49.736;8.734;2024-01-15T08:23:37;23.15;;;13.88;;
11447;SDS011;43755;49.736;8.734;2024-01-15T08:25:39;24.67;;;14.00;;
11447;SDS011;43755;49.736;8.734;2024-01-15T08:27:40;24.90;;;14.25;;
11447;SDS011;43755;49.736;8.734;2024-01-15T08:29:42;26.38;;;14.20;;
11447;SDS011;43755;49.736;8.734;2024-01-15T08:31:44;23.00;;;14.27;;
11447;SDS011;43755;49.736;8.734;2024-01-15T08:33:46;24.02;;;13.65;;
11447;SDS011;43755;49.736;8.734;2024-01-15T08:35:47;24.67;;;13.93;;
11447;SDS011;43755;49.736;8.734;2024-01-15T08:37:50;24.42;;;13.77;;
11447;SDS011;43755;49.736;8.734;2024-01-15T08:39:51;22.42;;;13.73;;
11447;SDS011;43755;49.736;8.734;2024-01-15T08:41:53;25.02;;;14.35;;
11447;SDS011;43755;49.736;8.734;2024-01-15T08:43:54;24.98;;;13.98;;
11447;SDS011;43755;49.736;8.734;2024-01-15T08:45:55;24.98;;;13.63;;
11447;SDS011;43755;49.736;8.734;2024-01-15T08:47:57;24.40;;;13.93;;
11447;SDS011;43755;49.736;8.734;2024-01-15T08:49:58;21.25;;;12.95;;
11447;SDS011;43755;49.736;8.734;2024-01-15T08:52:00;23.55;;;13.85;;
11447;SDS011;43755;49.736;8.734;2024-01-15T08:54:02;22.67;;;13.80;;
11447;SDS011;43755;49.736;8.734;2024-01-15T08:56:04;24.27;;;13.88;;
11447;SDS011;43755;49.736;8.734;2024-01-15T08:58:06;23.45;;;13.40;;
11447;SDS011;43755;49.736;8.734;2024-01-15T09:00:07;23.13;;;14.05;;
11447;SDS011;43755;49.736;8.734;2024-01-15T09:02:10;26.38;;;14.57;;
11447;SDS011;43755;49.736;8.734;2024-01-15T09:04:11;25.15;;;14.35;;
11447;SDS011;43755;49.736;8.734;2024-01-15T09:06:12;24.00;;;13.70;;
11447;SDS011;43755;49.736;8.734;2024-01-15T09:08:14;22.65;;;13.65;;
11447;SDS011;43755;49.736;8.734;2024-01-15T09:10:17;22.85;;;13.13;;
11447;SDS011;43755;49.736;8.734;2024-01-15T09:12:18;21.70;;;13.57;;
11447;SDS011;43755;49.736;8.734;2024-01-15T09:14:22;23.67;;;13.05;;
11447;SDS011;43755;49.736;8.734;2024-01-15T09:16:24;24.77;;;14.93;;
11447;SDS011;43755;49.736;8.734;2024-01-15T09:18:25;24.83;;;13.60;;
11447;SDS011;43755;49.736;8.734;2024-01-15T09:20:27;25.63;;;14.50;;
11447;SDS011;43755;49.736;8.734;2024-01-15T09:22:28;24.30;;;14.10;;
11447;SDS011;43755;49.736;8.734;2024-01-15T09:24:29;21.88;;;13.68;;
11447;SDS011;43755;49.736;8.734;2024-01-15T09:26:32;23.02;;;14.23;;
11447;SDS011;43755;49.736;8.734;2024-01-15T09:28:34;25.27;;;14.60;;
11447;SDS011;43755;49.736;8.734;2024-01-15T09:30:34;24.77;;;14.17;;
11447;SDS011;43755;49.736;8.734;2024-01-15T09:32:36;21.23;;;13.52;;
11447;SDS011;43755;49.736;8.734;2024-01-15T09:34:37;23.63;;;14.80;;
11447;SDS011;43755;49.736;8.734;2024-01-15T09:36:39;22.35;;;14.02;;
11447;SDS011;43755;49.736;8.734;2024-01-15T09:38:42;23.65;;;14.45;;
11447;SDS011;43755;49.736;8.734;2024-01-15T09:40:43;22.63;;;13.20;;
11447;SDS011;43755;49.736;8.734;2024-01-15T09:42:48;23.77;;;13.63;;
11447;SDS011;43755;49.736;8.734;2024-01-15T09:44:50;24.63;;;14.68;;
11447;SDS011;43755;49.736;8.734;2024-01-15T09:46:52;25.65;;;13.98;;
11447;SDS011;43755;49.736;8.734;2024-01-15T09:48:54;22.55;;;13.75;;
11447;SDS011;43755;49.736;8.734;2024-01-15T09:50:56;22.00;;;14.35;;
11447;SDS011;43755;49.736;8.734;2024-01-15T09:52:58;24.85;;;15.07;;
11447;SDS011;43755;49.736;8.734;2024-01-15T09:55:01;23.25;;;14.52;;
11447;SDS011;43755;49.736;8.734;2024-01-15T09:57:02;22.50;;;13.82;;
11447;SDS011;43755;49.736;8.734;2024-01-15T09:59:06;24.15;;;14.90;;
11447;SDS011;43755;49.736;8.734;2024-01-15T10:01:08;25.55;;;15.30;;
11447;SDS011;43755;49.736;8.734;2024-01-15T10:03:09;25.23;;;14.95;;
11447;SDS011;43755;49.736;8.734;2024-01-15T10:05:11;23.15;;;14.60;;
11447;SDS011;43755;49.736;8.734;2024-01-15T10:07:15;22.75;;;15.25;;
11447;SDS011;43755;49.736;8.734;2024-01-15T10:09:17;25.35;;;15.65;;
11447;SDS011;43755;49.736;8.734;2024-01-15T10:11:19;24.33;;;14.60;;
11447;SDS011;43755;49.736;8.734;2024-01-15T10:13:21;26.23;;;15.05;;
11447;SDS011;43755;49.736;8.734;2024-01-15T10:15:24;24.75;;;15.52;;
11447;SDS011;43755;49.736;8.734;2024-01-15T10:17:27;22.42;;;13.95;;
11447;SDS011;43755;49.736;8.734;2024-01-15T10:19:27;24.75;;;14.50;;
11447;SDS011;43755;49.736;8.734;2024-01-15T10:21:30;23.63;;;15.02;;
11447;SDS011;43755;49.736;8.734;2024-01-15T10:23:34;24.25;;;15.15;;
11447;SDS011;43755;49.736;8.734;2024-01-15T10:25:36;23.17;;;15.43;;
11447;SDS011;43755;49.736;8.734;2024-01-15T10:27:37;23.08;;;15.38;;
11447;SDS011;43755;49.736;8.734;2024-01-15T10:29:38;26.17;;;15.37;;
11447;SDS011;43755;49.736;8.734;2024-01-15T10:31:40;23.75;;;14.70;;
11447;SDS011;43755;49.736;8.734;2024-01-15T10:33:42;23.95;;;14.82;;
11447;SDS011;43755;49.736;8.734;2024-01-15T10:35:43;24.50;;;15.13;;
11447;SDS011;43755;49.736;8.734;2024-01-15T10:37:44;22.92;;;15.23;;
11447;SDS011;43755;49.736;8.734;2024-01-15T10:39:46;25.10;;;14.52;;
11447;SDS011;43755;49.736;8.734;2024-01-15T10:41:47;22.23;;;14.23;;
11447;SDS011;43755;49.736;8.734;2024-01-15T10:43:47;21.10;;;14.83;;
11447;SDS011;43755;49.736;8.734;2024-01-15T10:45:49;21.40;;;14.13;;
11447;SDS011;43755;49.736;8.734;2024-01-15T10:47:53;21.23;;;14.25;;
11447;SDS011;43755;49.736;8.734;2024-01-15T10:49:58;22.50;;;14.20;;
11447;SDS011;43755;49.736;8.734;2024-01-15T10:52:00;23.98;;;14.35;;
11447;SDS011;43755;49.736;8.734;2024-01-15T10:54:02;23.05;;;15.02;;
11447;SDS011;43755;49.736;8.734;2024-01-15T10:56:05;21.65;;;14.15;;
11447;SDS011;43755;49.736;8.734;2024-01-15T10:58:08;21.95;;;13.57;;
11447;SDS011;43755;49.736;8.734;2024-01-15T11:00:10;22.75;;;14.88;;
11447;SDS011;43755;49.736;8.734;2024-01-15T11:02:14;24.80;;;14.02;;
11447;SDS011;43755;49.736;8.734;2024-01-15T11:04:16;21.27;;;14.30;;
11447;SDS011;43755;49.736;8.734;2024-01-15T11:06:19;21.40;;;14.18;;
11447;SDS011;43755;49.736;8.734;2024-01-15T11:08:21;24.58;;;14.60;;
11447;SDS011;43755;49.736;8.734;2024-01-15T11:10:38;20.20;;;13.52;;
11447;SDS011;43755;49.736;8.734;2024-01-15T11:12:40;20.13;;;13.13;;
11447;SDS011;43755;49.736;8.734;2024-01-15T11:14:46;20.27;;;13.70;;
11447;SDS011;43755;49.736;8.734;2024-01-15T11:16:54;23.67;;;13.25;;
11447;SDS011;43755;49.736;8.734;2024-01-15T11:19:02;21.23;;;13.25;;
11447;SDS011;43755;49.736;8.734;2024-01-15T11:21:21;22.30;;;13.68;;
11447;SDS011;43755;49.736;8.734;2024-01-15T11:25:46;20.15;;;12.93;;
11447;SDS011;43755;49.736;8.734;2024-01-15T11:27:47;20.45;;;13.30;;
11447;SDS011;43755;49.736;8.734;2024-01-15T11:29:55;21.95;;;13.50;;
11447;SDS011;43755;49.736;8.734;2024-01-15T11:32:04;21.40;;;13.40;;
11447;SDS011;43755;49.736;8.734;2024-01-15T11:34:07;23.60;;;14.10;;
11447;SDS011;43755;49.736;8.734;2024-01-15T11:36:09;20.40;;;13.32;;
11447;SDS011;43755;49.736;8.734;2024-01-15T11:38:12;22.50;;;13.77;;
11447;SDS011;43755;49.736;8.734;2024-01-15T11:40:37;23.40;;;14.00;;
11447;SDS011;43755;49.736;8.734;2024-01-15T11:42:39;22.05;;;13.73;;
11447;SDS011;43755;49.736;8.734;2024-01-15T11:44:41;22.67;;;13.93;;
11447;SDS011;43755;49.736;8.734;2024-01-15T11:46:43;20.20;;;13.75;;
11447;SDS011;43755;49.736;8.734;2024-01-15T11:49:00;20.05;;;12.82;;
11447;SDS011;43755;49.736;8.734;2024-01-15T11:51:05;20.67;;;13.43;;
11447;SDS011;43755;49.736;8.734;2024-01-15T11:53:08;18.05;;;12.82;;
11447;SDS011;43755;49.736;8.734;2024-01-15T11:55:26;21.20;;;13.52;;